sensor_id;sensor_type;location;lat;lon;timestamp;P1;durP1;ratioP1;P2;durP2;ratioP2
62941;SDS011;49042;47.318;19.874;2022-08-05T00:00:50;6.72;;;3.08;;
62941;SDS011;49042;47.318;19.874;2022-08-05T00:03:51;6.12;;;2.80;;
62941;SDS011;49042;47.318;19.874;2022-08-05T00:06:57;5.35;;;2.87;;
62941;SDS011;49042;47.318;19.874;2022-08-05T00:09:59;5.85;;;2.90;;
62941;SDS011;49042;47.318;19.874;2022-08-05T00:13:01;8.93;;;2.85;;
62941;SDS011;49042;47.318;19.874;2022-08-05T00:16:03;5.37;;;3.28;;
62941;SDS011;49042;47.318;19.874;2022-08-05T00:19:08;6.85;;;2.67;;
62941;SDS011;49042;47.318;19.874;2022-08-05T00:22:10;6.78;;;2.90;;
62941;SDS011;49042;47.318;19.874;2022-08-05T00:25:12;15.35;;;3.42;;
62941;SDS011;49042;47.318;19.874;2022-08-05T00:28:16;6.70;;;2.78;;
62941;SDS011;49042;47.318;19.874;2022-08-05T00:31:30;6.57;;;2.90;;
62941;SDS011;49042;47.318;19.874;2022-08-05T00:34:52;10.02;;;3.40;;
62941;SDS011;49042;47.318;19.874;2022-08-05T00:38:07;5.40;;;2.65;;
62941;SDS011;49042;47.318;19.874;2022-08-05T00:41:09;3.53;;;2.67;;
62941;SDS011;49042;47.318;19.874;2022-08-05T00:44:12;6.30;;;2.62;;
62941;SDS011;49042;47.318;19.874;2022-08-05T00:47:13;5.18;;;2.75;;
62941;SDS011;49042;47.318;19.874;2022-08-05T00:50:17;8.07;;;2.50;;
62941;SDS011;49042;47.318;19.874;2022-08-05T00:53:21;6.60;;;2.80;;
62941;SDS011;49042;47.318;19.874;2022-08-05T00:56:43;4.72;;;2.85;;
62941;SDS011;49042;47.318;19.874;2022-08-05T00:59:51;18.70;;;3.83;;
62941;SDS011;49042;47.318;19.874;2022-08-05T01:02:54;7.65;;;3.90;;
62941;SDS011;49042;47.318;19.874;2022-08-05T01:05:57;10.05;;;3.78;;
62941;SDS011;49042;47.318;19.874;2022-08-05T01:08:59;7.20;;;3.95;;
62941;SDS011;49042;47.318;19.874;2022-08-05T01:12:07;9.55;;;3.42;;
62941;SDS011;49042;47.318;19.874;2022-08-05T01:15:20;9.65;;;2.97;;
62941;SDS011;49042;47.318;19.874;2022-08-05T01:18:39;5.70;;;3.10;;
62941;SDS011;49042;47.318;19.874;2022-08-05T01:25:49;5.25;;;2.67;;
62941;SDS011;49042;47.318;19.874;2022-08-05T01:29:03;4.65;;;2.60;;
62941;SDS011;49042;47.318;19.874;2022-08-05T01:32:10;5.68;;;2.53;;
62941;SDS011;49042;47.318;19.874;2022-08-05T01:35:21;3.92;;;2.65;;
62941;SDS011;49042;47.318;19.874;2022-08-05T01:41:51;5.55;;;2.58;;
62941;SDS011;49042;47.318;19.874;2022-08-05T01:44:55;6.95;;;2.75;;
62941;SDS011;49042;47.318;19.874;2022-08-05T01:48:00;6.35;;;2.87;;
62941;SDS011;49042;47.318;19.874;2022-08-05T01:51:10;8.65;;;3.00;;
62941;SDS011;49042;47.318;19.874;2022-08-05T01:54:15;4.65;;;2.67;;
62941;SDS011;49042;47.318;19.874;2022-08-05T01:57:26;3.80;;;2.70;;
62941;SDS011;49042;47.318;19.874;2022-08-05T02:00:50;9.38;;;2.90;;
62941;SDS011;49042;47.318;19.874;2022-08-05T02:03:54;4.12;;;2.87;;
62941;SDS011;49042;47.318;19.874;2022-08-05T02:06:57;3.90;;;2.78;;
62941;SDS011;49042;47.318;19.874;2022-08-05T02:10:04;4.28;;;2.42;;
62941;SDS011;49042;47.318;19.874;2022-08-05T02:13:15;5.72;;;3.00;;
62941;SDS011;49042;47.318;19.874;2022-08-05T02:19:47;5.57;;;3.17;;
62941;SDS011;49042;47.318;19.874;2022-08-05T02:23:00;8.38;;;3.40;;
62941;SDS011;49042;47.318;19.874;2022-08-05T02:26:09;5.05;;;3.20;;
62941;SDS011;49042;47.318;19.874;2022-08-05T02:29:15;4.80;;;3.03;;
62941;SDS011;49042;47.318;19.874;2022-08-05T02:32:27;4.87;;;3.03;;
62941;SDS011;49042;47.318;19.874;2022-08-05T02:35:32;4.87;;;2.80;;
62941;SDS011;49042;47.318;19.874;2022-08-05T02:38:50;4.75;;;3.03;;
62941;SDS011;49042;47.318;19.874;2022-08-05T02:41:55;8.63;;;3.10;;
62941;SDS011;49042;47.318;19.874;2022-08-05T02:45:02;6.62;;;2.92;;
62941;SDS011;49042;47.318;19.874;2022-08-05T02:48:07;5.90;;;3.03;;
62941;SDS011;49042;47.318;19.874;2022-08-05T02:51:13;4.45;;;2.85;;
62941;SDS011;49042;47.318;19.874;2022-08-05T02:54:16;5.82;;;3.25;;
62941;SDS011;49042;47.318;19.874;2022-08-05T02:57:37;4.80;;;3.00;;
62941;SDS011;49042;47.318;19.874;2022-08-05T03:01:01;5.43;;;2.72;;
62941;SDS011;49042;47.318;19.874;2022-08-05T03:04:04;5.05;;;2.92;;
62941;SDS011;49042;47.318;19.874;2022-08-05T03:07:16;9.98;;;2.80;;
62941;SDS011;49042;47.318;19.874;2022-08-05T03:10:43;6.53;;;2.83;;
62941;SDS011;49042;47.318;19.874;2022-08-05T03:14:06;6.68;;;3.15;;
62941;SDS011;49042;47.318;19.874;2022-08-05T03:17:08;4.53;;;3.08;;
62941;SDS011;49042;47.318;19.874;2022-08-05T03:20:10;5.12;;;2.90;;
62941;SDS011;49042;47.318;19.874;2022-08-05T03:23:14;4.45;;;2.85;;
62941;SDS011;49042;47.318;19.874;2022-08-05T03:26:16;9.73;;;3.15;;
62941;SDS011;49042;47.318;19.874;2022-08-05T03:29:33;5.20;;;3.20;;
62941;SDS011;49042;47.318;19.874;2022-08-05T03:32:55;7.62;;;3.35;;
62941;SDS011;49042;47.318;19.874;2022-08-05T03:35:58;5.57;;;3.05;;
62941;SDS011;49042;47.318;19.874;2022-08-05T03:39:05;9.20;;;3.10;;
62941;SDS011;49042;47.318;19.874;2022-08-05T03:42:13;5.75;;;3.37;;
62941;SDS011;49042;47.318;19.874;2022-08-05T03:45:16;6.03;;;3.20;;
62941;SDS011;49042;47.318;19.874;2022-08-05T03:48:23;6.68;;;3.40;;
62941;SDS011;49042;47.318;19.874;2022-08-05T03:51:27;7.37;;;3.42;;
62941;SDS011;49042;47.318;19.874;2022-08-05T03:54:57;5.53;;;3.33;;
62941;SDS011;49042;47.318;19.874;2022-08-05T03:58:23;6.15;;;3.28;;
62941;SDS011;49042;47.318;19.874;2022-08-05T04:01:30;6.37;;;3.20;;
62941;SDS011;49042;47.318;19.874;2022-08-05T04:04:33;8.18;;;3.20;;
62941;SDS011;49042;47.318;19.874;2022-08-05T04:07:38;13.55;;;4.10;;
62941;SDS011;49042;47.318;19.874;2022-08-05T04:10:59;25.10;;;4.00;;
62941;SDS011;49042;47.318;19.874;2022-08-05T04:14:03;90.28;;;7.87;;
62941;SDS011;49042;47.318;19.874;2022-08-05T04:17:06;344.50;;;20.90;;
62941;SDS011;49042;47.318;19.874;2022-08-05T04:20:18;122.13;;;7.50;;
62941;SDS011;49042;47.318;19.874;2022-08-05T04:23:24;11.63;;;3.75;;
62941;SDS011;49042;47.318;19.874;2022-08-05T04:26:47;9.48;;;3.50;;
62941;SDS011;49042;47.318;19.874;2022-08-05T04:29:50;19.67;;;3.97;;
62941;SDS011;49042;47.318;19.874;2022-08-05T04:32:52;35.38;;;6.30;;
62941;SDS011;49042;47.318;19.874;2022-08-05T04:35:53;29.33;;;5.60;;
62941;SDS011;49042;47.318;19.874;2022-08-05T04:39:16;41.05;;;6.28;;
62941;SDS011;49042;47.318;19.874;2022-08-05T04:42:19;16.52;;;4.75;;
62941;SDS011;49042;47.318;19.874;2022-08-05T04:45:25;18.40;;;5.62;;
62941;SDS011;49042;47.318;19.874;2022-08-05T04:48:47;11.43;;;4.35;;
62941;SDS011;49042;47.318;19.874;2022-08-05T04:51:51;23.05;;;4.40;;
62941;SDS011;49042;47.318;19.874;2022-08-05T04:55:00;5.50;;;3.75;;
62941;SDS011;49042;47.318;19.874;2022-08-05T04:58:15;10.82;;;4.37;;
62941;SDS011;49042;47.318;19.874;2022-08-05T05:01:21;8.50;;;4.18;;
62941;SDS011;49042;47.318;19.874;2022-08-05T05:04:43;11.07;;;3.95;;
62941;SDS011;49042;47.318;19.874;2022-08-05T05:11:00;167.15;;;10.18;;
62941;SDS011;49042;47.318;19.874;2022-08-05T05:14:02;21.85;;;4.45;;
62941;SDS011;49042;47.318;19.874;2022-08-05T05:17:08;10.07;;;3.80;;
62941;SDS011;49042;47.318;19.874;2022-08-05T05:20:11;11.30;;;4.05;;
62941;SDS011;49042;47.318;19.874;2022-08-05T05:23:14;8.65;;;4.10;;
62941;SDS011;49042;47.318;19.874;2022-08-05T05:26:20;13.98;;;3.65;;
62941;SDS011;49042;47.318;19.874;2022-08-05T05:29:32;10.02;;;3.90;;
62941;SDS011;49042;47.318;19.874;2022-08-05T05:32:54;9.30;;;3.40;;
62941;SDS011;49042;47.318;19.874;2022-08-05T05:35:56;26.27;;;4.20;;
62941;SDS011;49042;47.318;19.874;2022-08-05T05:39:00;18.33;;;3.55;;
62941;SDS011;49042;47.318;19.874;2022-08-05T05:42:04;6.75;;;2.90;;
62941;SDS011;49042;47.318;19.874;2022-08-05T05:45:07;15.73;;;3.30;;
62941;SDS011;49042;47.318;19.874;2022-08-05T05:48:09;3.90;;;2.10;;
62941;SDS011;49042;47.318;19.874;2022-08-05T05:51:17;7.00;;;2.20;;
62941;SDS011;49042;47.318;19.874;2022-08-05T05:54:20;7.70;;;2.30;;
62941;SDS011;49042;47.318;19.874;2022-08-05T05:57:42;89.68;;;6.68;;
62941;SDS011;49042;47.318;19.874;2022-08-05T06:00:53;5.68;;;2.22;;
62941;SDS011;49042;47.318;19.874;2022-08-05T06:03:55;5.15;;;1.85;;
62941;SDS011;49042;47.318;19.874;2022-08-05T06:07:04;11.30;;;2.25;;
62941;SDS011;49042;47.318;19.874;2022-08-05T06:10:06;7.55;;;1.95;;
62941;SDS011;49042;47.318;19.874;2022-08-05T06:13:10;7.80;;;2.05;;
62941;SDS011;49042;47.318;19.874;2022-08-05T06:16:12;6.03;;;1.77;;
62941;SDS011;49042;47.318;19.874;2022-08-05T06:19:32;6.87;;;2.17;;
62941;SDS011;49042;47.318;19.874;2022-08-05T06:22:35;3.53;;;1.98;;
62941;SDS011;49042;47.318;19.874;2022-08-05T06:25:40;3.15;;;1.92;;
62941;SDS011;49042;47.318;19.874;2022-08-05T06:29:02;5.75;;;1.83;;
62941;SDS011;49042;47.318;19.874;2022-08-05T06:32:24;2.67;;;1.80;;
62941;SDS011;49042;47.318;19.874;2022-08-05T06:35:29;4.25;;;1.95;;
62941;SDS011;49042;47.318;19.874;2022-08-05T06:38:51;5.47;;;2.00;;
62941;SDS011;49042;47.318;19.874;2022-08-05T06:41:59;2.97;;;1.80;;
62941;SDS011;49042;47.318;19.874;2022-08-05T06:45:04;3.05;;;1.80;;
62941;SDS011;49042;47.318;19.874;2022-08-05T06:48:09;3.10;;;2.00;;
62941;SDS011;49042;47.318;19.874;2022-08-05T06:51:31;6.28;;;2.17;;
62941;SDS011;49042;47.318;19.874;2022-08-05T06:54:33;5.68;;;1.98;;
62941;SDS011;49042;47.318;19.874;2022-08-05T06:57:36;8.25;;;1.90;;
62941;SDS011;49042;47.318;19.874;2022-08-05T07:00:58;10.75;;;2.47;;
62941;SDS011;49042;47.318;19.874;2022-08-05T07:04:01;7.22;;;2.03;;
62941;SDS011;49042;47.318;19.874;2022-08-05T07:07:03;9.93;;;2.10;;
62941;SDS011;49042;47.318;19.874;2022-08-05T07:10:08;4.05;;;1.70;;
62941;SDS011;49042;47.318;19.874;2022-08-05T07:16:56;9.43;;;2.10;;
62941;SDS011;49042;47.318;19.874;2022-08-05T07:20:22;16.42;;;2.70;;
62941;SDS011;49042;47.318;19.874;2022-08-05T07:23:34;8.32;;;1.75;;
62941;SDS011;49042;47.318;19.874;2022-08-05T07:26:49;2.78;;;1.80;;
62941;SDS011;49042;47.318;19.874;2022-08-05T07:29:51;3.35;;;1.65;;
62941;SDS011;49042;47.318;19.874;2022-08-05T07:33:13;2.15;;;1.60;;
62941;SDS011;49042;47.318;19.874;2022-08-05T07:36:17;5.00;;;1.83;;
62941;SDS011;49042;47.318;19.874;2022-08-05T07:39:21;2.08;;;1.80;;
62941;SDS011;49042;47.318;19.874;2022-08-05T07:42:43;7.07;;;1.85;;
62941;SDS011;49042;47.318;19.874;2022-08-05T07:45:45;4.00;;;1.40;;
62941;SDS011;49042;47.318;19.874;2022-08-05T07:48:58;9.57;;;1.58;;
62941;SDS011;49042;47.318;19.874;2022-08-05T07:52:06;5.45;;;1.50;;
62941;SDS011;49042;47.318;19.874;2022-08-05T07:55:09;4.40;;;1.50;;
62941;SDS011;49042;47.318;19.874;2022-08-05T07:58:31;7.50;;;1.50;;
62941;SDS011;49042;47.318;19.874;2022-08-05T08:01:53;5.70;;;1.65;;
62941;SDS011;49042;47.318;19.874;2022-08-05T08:04:58;1.58;;;1.40;;
62941;SDS011;49042;47.318;19.874;2022-08-05T08:08:01;3.53;;;1.50;;
62941;SDS011;49042;47.318;19.874;2022-08-05T08:11:03;11.50;;;1.30;;
62941;SDS011;49042;47.318;19.874;2022-08-05T08:14:09;3.60;;;1.10;;
62941;SDS011;49042;47.318;19.874;2022-08-05T08:17:18;3.40;;;1.58;;
62941;SDS011;49042;47.318;19.874;2022-08-05T08:20:22;3.00;;;1.30;;
62941;SDS011;49042;47.318;19.874;2022-08-05T08:23:45;7.07;;;2.37;;
62941;SDS011;49042;47.318;19.874;2022-08-05T08:27:04;2.90;;;1.20;;
62941;SDS011;49042;47.318;19.874;2022-08-05T08:30:07;4.10;;;1.20;;
62941;SDS011;49042;47.318;19.874;2022-08-05T08:33:32;5.30;;;1.90;;
62941;SDS011;49042;47.318;19.874;2022-08-05T08:36:38;3.83;;;1.35;;
62941;SDS011;49042;47.318;19.874;2022-08-05T08:39:50;2.50;;;1.20;;
62941;SDS011;49042;47.318;19.874;2022-08-05T08:42:52;4.62;;;1.48;;
62941;SDS011;49042;47.318;19.874;2022-08-05T08:45:57;9.68;;;1.40;;
62941;SDS011;49042;47.318;19.874;2022-08-05T08:49:02;4.62;;;1.30;;
62941;SDS011;49042;47.318;19.874;2022-08-05T08:52:28;4.95;;;1.40;;
62941;SDS011;49042;47.318;19.874;2022-08-05T08:55:33;5.70;;;1.50;;
62941;SDS011;49042;47.318;19.874;2022-08-05T08:58:55;3.25;;;1.30;;
62941;SDS011;49042;47.318;19.874;2022-08-05T09:02:03;5.28;;;1.45;;
62941;SDS011;49042;47.318;19.874;2022-08-05T09:05:10;2.67;;;1.25;;
62941;SDS011;49042;47.318;19.874;2022-08-05T09:08:18;6.05;;;1.35;;
62941;SDS011;49042;47.318;19.874;2022-08-05T09:11:28;3.78;;;1.35;;
62941;SDS011;49042;47.318;19.874;2022-08-05T09:14:50;9.20;;;1.60;;
62941;SDS011;49042;47.318;19.874;2022-08-05T09:18:05;3.97;;;1.20;;
62941;SDS011;49042;47.318;19.874;2022-08-05T09:21:09;5.05;;;1.35;;
62941;SDS011;49042;47.318;19.874;2022-08-05T09:24:21;1.73;;;1.17;;
62941;SDS011;49042;47.318;19.874;2022-08-05T09:27:29;6.97;;;1.40;;
62941;SDS011;49042;47.318;19.874;2022-08-05T09:30:56;3.75;;;1.30;;
62941;SDS011;49042;47.318;19.874;2022-08-05T09:34:21;1.35;;;1.20;;
62941;SDS011;49042;47.318;19.874;2022-08-05T09:40:49;7.87;;;1.40;;
62941;SDS011;49042;47.318;19.874;2022-08-05T09:47:05;5.78;;;1.50;;
62941;SDS011;49042;47.318;19.874;2022-08-05T09:50:12;8.00;;;1.23;;
62941;SDS011;49042;47.318;19.874;2022-08-05T09:56:55;4.82;;;1.30;;
62941;SDS011;49042;47.318;19.874;2022-08-05T10:00:12;5.72;;;1.30;;
62941;SDS011;49042;47.318;19.874;2022-08-05T10:03:15;5.12;;;1.58;;
62941;SDS011;49042;47.318;19.874;2022-08-05T10:06:20;5.37;;;1.20;;
62941;SDS011;49042;47.318;19.874;2022-08-05T10:09:22;9.75;;;1.40;;
62941;SDS011;49042;47.318;19.874;2022-08-05T10:12:30;3.87;;;1.00;;
62941;SDS011;49042;47.318;19.874;2022-08-05T10:16:00;3.45;;;1.20;;
62941;SDS011;49042;47.318;19.874;2022-08-05T10:19:03;7.28;;;1.30;;
62941;SDS011;49042;47.318;19.874;2022-08-05T10:22:10;2.87;;;1.12;;
62941;SDS011;49042;47.318;19.874;2022-08-05T10:25:30;5.87;;;1.20;;
62941;SDS011;49042;47.318;19.874;2022-08-05T10:28:33;11.18;;;1.40;;
62941;SDS011;49042;47.318;19.874;2022-08-05T10:31:37;3.90;;;1.33;;
62941;SDS011;49042;47.318;19.874;2022-08-05T10:35:02;2.83;;;1.40;;
62941;SDS011;49042;47.318;19.874;2022-08-05T10:38:04;2.87;;;1.20;;
62941;SDS011;49042;47.318;19.874;2022-08-05T10:44:47;10.60;;;1.40;;
62941;SDS011;49042;47.318;19.874;2022-08-05T10:47:49;5.00;;;1.58;;
62941;SDS011;49042;47.318;19.874;2022-08-05T10:51:13;4.10;;;1.37;;
62941;SDS011;49042;47.318;19.874;2022-08-05T10:54:23;10.07;;;2.00;;
62941;SDS011;49042;47.318;19.874;2022-08-05T10:58:09;2.37;;;1.52;;
62941;SDS011;49042;47.318;19.874;2022-08-05T11:01:15;5.85;;;1.55;;
62941;SDS011;49042;47.318;19.874;2022-08-05T11:04:44;1.75;;;1.40;;
62941;SDS011;49042;47.318;19.874;2022-08-05T11:18:22;3.40;;;1.70;;
62941;SDS011;49042;47.318;19.874;2022-08-05T11:21:30;3.33;;;1.60;;
62941;SDS011;49042;47.318;19.874;2022-08-05T11:25:25;5.07;;;1.80;;
62941;SDS011;49042;47.318;19.874;2022-08-05T11:28:51;4.05;;;1.70;;
62941;SDS011;49042;47.318;19.874;2022-08-05T11:32:21;8.85;;;2.30;;
62941;SDS011;49042;47.318;19.874;2022-08-05T11:39:09;8.43;;;1.77;;
62941;SDS011;49042;47.318;19.874;2022-08-05T11:42:14;5.32;;;1.87;;
62941;SDS011;49042;47.318;19.874;2022-08-05T11:45:18;4.62;;;1.87;;
62941;SDS011;49042;47.318;19.874;2022-08-05T11:48:40;2.05;;;1.85;;
62941;SDS011;49042;47.318;19.874;2022-08-05T11:51:44;5.78;;;2.00;;
62941;SDS011;49042;47.318;19.874;2022-08-05T11:54:50;3.97;;;1.60;;
62941;SDS011;49042;47.318;19.874;2022-08-05T11:57:55;2.83;;;1.67;;
62941;SDS011;49042;47.318;19.874;2022-08-05T12:01:13;6.18;;;1.92;;
62941;SDS011;49042;47.318;19.874;2022-08-05T12:04:19;4.65;;;1.77;;
62941;SDS011;49042;47.318;19.874;2022-08-05T12:07:39;8.23;;;2.20;;
62941;SDS011;49042;47.318;19.874;2022-08-05T12:11:02;3.47;;;1.95;;
62941;SDS011;49042;47.318;19.874;2022-08-05T12:14:06;3.90;;;1.90;;
62941;SDS011;49042;47.318;19.874;2022-08-05T12:17:11;5.55;;;1.77;;
62941;SDS011;49042;47.318;19.874;2022-08-05T12:20:34;5.05;;;1.90;;
62941;SDS011;49042;47.318;19.874;2022-08-05T12:23:39;5.72;;;1.80;;
62941;SDS011;49042;47.318;19.874;2022-08-05T12:26:52;9.60;;;1.90;;
62941;SDS011;49042;47.318;19.874;2022-08-05T12:30:05;14.75;;;1.85;;
62941;SDS011;49042;47.318;19.874;2022-08-05T12:33:09;4.68;;;1.90;;
62941;SDS011;49042;47.318;19.874;2022-08-05T12:36:28;9.52;;;1.92;;
62941;SDS011;49042;47.318;19.874;2022-08-05T12:39:31;7.45;;;1.80;;
62941;SDS011;49042;47.318;19.874;2022-08-05T12:42:39;3.92;;;1.58;;
62941;SDS011;49042;47.318;19.874;2022-08-05T12:45:54;2.95;;;1.48;;
62941;SDS011;49042;47.318;19.874;2022-08-05T12:52:15;6.68;;;1.80;;
62941;SDS011;49042;47.318;19.874;2022-08-05T12:55:29;2.97;;;1.62;;
62941;SDS011;49042;47.318;19.874;2022-08-05T12:58:35;4.50;;;1.77;;
62941;SDS011;49042;47.318;19.874;2022-08-05T13:01:58;1.40;;;1.30;;
62941;SDS011;49042;47.318;19.874;2022-08-05T13:05:08;5.93;;;1.30;;
62941;SDS011;49042;47.318;19.874;2022-08-05T13:08:16;5.72;;;1.50;;
62941;SDS011;49042;47.318;19.874;2022-08-05T13:11:22;6.70;;;1.33;;
62941;SDS011;49042;47.318;19.874;2022-08-05T13:14:50;1.70;;;1.15;;
62941;SDS011;49042;47.318;19.874;2022-08-05T13:18:07;2.85;;;1.30;;
62941;SDS011;49042;47.318;19.874;2022-08-05T13:21:10;3.80;;;1.40;;
62941;SDS011;49042;47.318;19.874;2022-08-05T13:24:12;2.28;;;1.00;;
62941;SDS011;49042;47.318;19.874;2022-08-05T13:27:38;13.65;;;1.33;;
62941;SDS011;49042;47.318;19.874;2022-08-05T13:30:41;3.50;;;1.30;;
62941;SDS011;49042;47.318;19.874;2022-08-05T13:33:43;3.58;;;1.20;;
62941;SDS011;49042;47.318;19.874;2022-08-05T13:37:05;7.65;;;1.30;;
62941;SDS011;49042;47.318;19.874;2022-08-05T13:40:08;3.37;;;1.23;;
62941;SDS011;49042;47.318;19.874;2022-08-05T13:43:20;4.05;;;1.08;;
62941;SDS011;49042;47.318;19.874;2022-08-05T13:46:22;2.92;;;0.95;;
62941;SDS011;49042;47.318;19.874;2022-08-05T13:49:45;8.10;;;1.50;;
62941;SDS011;49042;47.318;19.874;2022-08-05T13:52:49;7.12;;;1.73;;
62941;SDS011;49042;47.318;19.874;2022-08-05T13:55:52;2.35;;;1.10;;
62941;SDS011;49042;47.318;19.874;2022-08-05T13:59:02;6.50;;;1.30;;
62941;SDS011;49042;47.318;19.874;2022-08-05T14:02:20;3.40;;;1.30;;
62941;SDS011;49042;47.318;19.874;2022-08-05T14:05:30;2.20;;;1.30;;
62941;SDS011;49042;47.318;19.874;2022-08-05T14:08:51;5.32;;;1.02;;
62941;SDS011;49042;47.318;19.874;2022-08-05T14:11:53;4.10;;;1.17;;
62941;SDS011;49042;47.318;19.874;2022-08-05T14:15:15;5.35;;;1.37;;
62941;SDS011;49042;47.318;19.874;2022-08-05T14:18:37;4.05;;;1.02;;
62941;SDS011;49042;47.318;19.874;2022-08-05T14:21:39;4.12;;;1.10;;
62941;SDS011;49042;47.318;19.874;2022-08-05T14:25:02;5.90;;;1.50;;
62941;SDS011;49042;47.318;19.874;2022-08-05T14:28:22;7.70;;;1.42;;
62941;SDS011;49042;47.318;19.874;2022-08-05T14:31:27;2.75;;;1.25;;
62941;SDS011;49042;47.318;19.874;2022-08-05T14:34:49;5.00;;;1.30;;
62941;SDS011;49042;47.318;19.874;2022-08-05T14:37:51;4.40;;;1.33;;
62941;SDS011;49042;47.318;19.874;2022-08-05T14:40:55;2.90;;;1.35;;
62941;SDS011;49042;47.318;19.874;2022-08-05T14:43:58;5.62;;;1.17;;
62941;SDS011;49042;47.318;19.874;2022-08-05T14:47:20;5.50;;;1.40;;
62941;SDS011;49042;47.318;19.874;2022-08-05T14:50:42;10.05;;;1.35;;
62941;SDS011;49042;47.318;19.874;2022-08-05T14:53:45;2.65;;;1.30;;
62941;SDS011;49042;47.318;19.874;2022-08-05T14:57:07;4.37;;;1.40;;
62941;SDS011;49042;47.318;19.874;2022-08-05T15:00:13;1.62;;;1.33;;
62941;SDS011;49042;47.318;19.874;2022-08-05T15:03:20;1.80;;;1.35;;
62941;SDS011;49042;47.318;19.874;2022-08-05T15:06:23;5.35;;;1.40;;
62941;SDS011;49042;47.318;19.874;2022-08-05T15:09:30;4.75;;;1.60;;
62941;SDS011;49042;47.318;19.874;2022-08-05T15:12:52;3.55;;;1.50;;
62941;SDS011;49042;47.318;19.874;2022-08-05T15:16:04;3.03;;;1.50;;
62941;SDS011;49042;47.318;19.874;2022-08-05T15:19:06;3.83;;;1.60;;
62941;SDS011;49042;47.318;19.874;2022-08-05T15:22:23;4.37;;;1.42;;
62941;SDS011;49042;47.318;19.874;2022-08-05T15:25:28;2.42;;;1.52;;
62941;SDS011;49042;47.318;19.874;2022-08-05T15:28:49;4.45;;;1.70;;
62941;SDS011;49042;47.318;19.874;2022-08-05T15:31:52;5.85;;;2.28;;
62941;SDS011;49042;47.318;19.874;2022-08-05T15:34:54;7.85;;;1.80;;
62941;SDS011;49042;47.318;19.874;2022-08-05T15:37:57;5.78;;;1.60;;
62941;SDS011;49042;47.318;19.874;2022-08-05T15:41:20;14.25;;;1.92;;
62941;SDS011;49042;47.318;19.874;2022-08-05T15:44:44;12.25;;;2.22;;
62941;SDS011;49042;47.318;19.874;2022-08-05T15:47:46;8.88;;;1.80;;
62941;SDS011;49042;47.318;19.874;2022-08-05T15:50:48;4.20;;;1.60;;
62941;SDS011;49042;47.318;19.874;2022-08-05T15:53:51;3.50;;;1.80;;
62941;SDS011;49042;47.318;19.874;2022-08-05T15:56:53;3.72;;;1.58;;
62941;SDS011;49042;47.318;19.874;2022-08-05T15:59:55;7.97;;;2.17;;
62941;SDS011;49042;47.318;19.874;2022-08-05T16:02:58;6.00;;;1.67;;
62941;SDS011;49042;47.318;19.874;2022-08-05T16:06:00;5.50;;;1.55;;
62941;SDS011;49042;47.318;19.874;2022-08-05T16:09:02;4.10;;;1.70;;
62941;SDS011;49042;47.318;19.874;2022-08-05T16:12:04;8.30;;;1.58;;
62941;SDS011;49042;47.318;19.874;2022-08-05T16:15:06;2.47;;;1.60;;
62941;SDS011;49042;47.318;19.874;2022-08-05T16:18:09;5.75;;;1.80;;
62941;SDS011;49042;47.318;19.874;2022-08-05T16:21:14;4.65;;;1.60;;
62941;SDS011;49042;47.318;19.874;2022-08-05T16:24:16;4.10;;;1.62;;
62941;SDS011;49042;47.318;19.874;2022-08-05T16:27:38;2.45;;;1.62;;
62941;SDS011;49042;47.318;19.874;2022-08-05T16:31:01;9.50;;;1.87;;
62941;SDS011;49042;47.318;19.874;2022-08-05T16:34:04;1.62;;;1.50;;
62941;SDS011;49042;47.318;19.874;2022-08-05T16:37:10;3.12;;;1.52;;
62941;SDS011;49042;47.318;19.874;2022-08-05T16:40:31;5.97;;;1.80;;
62941;SDS011;49042;47.318;19.874;2022-08-05T16:43:33;4.72;;;1.80;;
62941;SDS011;49042;47.318;19.874;2022-08-05T16:46:37;6.53;;;1.83;;
62941;SDS011;49042;47.318;19.874;2022-08-05T16:49:41;9.00;;;1.80;;
62941;SDS011;49042;47.318;19.874;2022-08-05T16:52:43;5.85;;;1.90;;
62941;SDS011;49042;47.318;19.874;2022-08-05T16:55:46;4.40;;;1.58;;
62941;SDS011;49042;47.318;19.874;2022-08-05T16:58:48;4.82;;;2.10;;
62941;SDS011;49042;47.318;19.874;2022-08-05T17:01:50;3.22;;;1.80;;
62941;SDS011;49042;47.318;19.874;2022-08-05T17:04:56;4.53;;;1.60;;
62941;SDS011;49042;47.318;19.874;2022-08-05T17:07:57;5.68;;;1.60;;
62941;SDS011;49042;47.318;19.874;2022-08-05T17:11:00;17.08;;;2.55;;
62941;SDS011;49042;47.318;19.874;2022-08-05T17:14:03;4.75;;;1.90;;
62941;SDS011;49042;47.318;19.874;2022-08-05T17:17:07;5.22;;;1.90;;
62941;SDS011;49042;47.318;19.874;2022-08-05T17:20:15;7.12;;;2.03;;
62941;SDS011;49042;47.318;19.874;2022-08-05T17:23:17;17.42;;;2.20;;
62941;SDS011;49042;47.318;19.874;2022-08-05T17:26:39;2.67;;;1.70;;
62941;SDS011;49042;47.318;19.874;2022-08-05T17:29:41;6.60;;;1.92;;
62941;SDS011;49042;47.318;19.874;2022-08-05T17:32:43;7.28;;;1.87;;
62941;SDS011;49042;47.318;19.874;2022-08-05T17:35:45;4.97;;;1.50;;
62941;SDS011;49042;47.318;19.874;2022-08-05T17:39:07;5.25;;;1.90;;
62941;SDS011;49042;47.318;19.874;2022-08-05T17:42:28;4.25;;;2.00;;
62941;SDS011;49042;47.318;19.874;2022-08-05T17:45:33;6.93;;;2.12;;
62941;SDS011;49042;47.318;19.874;2022-08-05T17:48:39;4.55;;;1.87;;
62941;SDS011;49042;47.318;19.874;2022-08-05T17:51:45;7.12;;;1.90;;
62941;SDS011;49042;47.318;19.874;2022-08-05T17:54:50;3.40;;;1.73;;
62941;SDS011;49042;47.318;19.874;2022-08-05T17:57:53;3.83;;;1.90;;
62941;SDS011;49042;47.318;19.874;2022-08-05T18:00:56;8.05;;;2.05;;
62941;SDS011;49042;47.318;19.874;2022-08-05T18:03:58;4.37;;;1.87;;
62941;SDS011;49042;47.318;19.874;2022-08-05T18:07:06;8.85;;;2.03;;
62941;SDS011;49042;47.318;19.874;2022-08-05T18:10:12;2.97;;;1.70;;
62941;SDS011;49042;47.318;19.874;2022-08-05T18:13:21;4.53;;;2.35;;
62941;SDS011;49042;47.318;19.874;2022-08-05T18:16:25;3.55;;;2.00;;
62941;SDS011;49042;47.318;19.874;2022-08-05T18:19:27;10.02;;;2.15;;
62941;SDS011;49042;47.318;19.874;2022-08-05T18:22:30;17.40;;;3.20;;
62941;SDS011;49042;47.318;19.874;2022-08-05T18:25:46;8.82;;;2.60;;
62941;SDS011;49042;47.318;19.874;2022-08-05T18:28:58;9.95;;;2.12;;
62941;SDS011;49042;47.318;19.874;2022-08-05T18:32:01;4.70;;;1.83;;
62941;SDS011;49042;47.318;19.874;2022-08-05T18:35:03;6.37;;;2.20;;
62941;SDS011;49042;47.318;19.874;2022-08-05T18:38:05;8.23;;;2.15;;
62941;SDS011;49042;47.318;19.874;2022-08-05T18:41:08;3.72;;;1.90;;
62941;SDS011;49042;47.318;19.874;2022-08-05T18:44:30;11.98;;;2.62;;
62941;SDS011;49042;47.318;19.874;2022-08-05T18:47:49;8.32;;;2.37;;
62941;SDS011;49042;47.318;19.874;2022-08-05T18:50:57;7.37;;;1.80;;
62941;SDS011;49042;47.318;19.874;2022-08-05T18:54:38;4.87;;;1.90;;
62941;SDS011;49042;47.318;19.874;2022-08-05T18:57:41;2.95;;;1.80;;
62941;SDS011;49042;47.318;19.874;2022-08-05T19:00:53;6.05;;;2.17;;
62941;SDS011;49042;47.318;19.874;2022-08-05T19:03:55;5.35;;;2.15;;
62941;SDS011;49042;47.318;19.874;2022-08-05T19:06:57;5.55;;;2.28;;
62941;SDS011;49042;47.318;19.874;2022-08-05T19:10:00;3.42;;;2.17;;
62941;SDS011;49042;47.318;19.874;2022-08-05T19:13:11;3.97;;;2.22;;
62941;SDS011;49042;47.318;19.874;2022-08-05T19:16:16;6.82;;;2.00;;
62941;SDS011;49042;47.318;19.874;2022-08-05T19:19:30;3.10;;;1.80;;
62941;SDS011;49042;47.318;19.874;2022-08-05T19:22:34;5.20;;;2.22;;
62941;SDS011;49042;47.318;19.874;2022-08-05T19:25:40;2.83;;;2.20;;
62941;SDS011;49042;47.318;19.874;2022-08-05T19:28:44;5.57;;;2.50;;
62941;SDS011;49042;47.318;19.874;2022-08-05T19:31:46;2.87;;;1.70;;